Cherrycreek, Mississippi
Current Conditions -  °F | °C
As of 11:53 PM on Wednesday 28 Jan 2015 (Local Time) from KTUP Reporting Station
Clear Clear  
Wind Chill: 41°   Ceiling: Unl
Heat Index: 45°   Visibility: 10mi
Dew Point: 32°   Wind: 8mph
Humidity: 60%   Direction: 200°SSW
Pressure: 30.17"   Gusts: NA
Location:  34.4333°N, 88.8629°W
Report Text: KTUP 290553Z AUTO 20007KT 10SM CLR 07/00 A3017 RMK AO2 SLP215 T00720000 10111 20061 401391022 50006
Loading
Personal Weather Stations






























Interactive Weather Map New forecast layout! Learn more

10-Day Weather Forecast

Advertisements
Track Severe Weather on mobile